Time;durP1;ratioP1;P1;durP2;ratioP2;P2;SDS_P1;SDS_P2;PMS_P1;PMS_P2;Temp;Humidity;BMP_temperature;BMP_pressure;BME280_temperature;BME280_humidity;BME280_pressure;Samples;Min_cycle;Max_cycle;Signal;HPM_P1;HPM_P2
2022/01/09 00:00:30;;;;;;;112.85;40.55;;;;;;;-2.92;94.09;98215.81;8468381;27;20504;-69
2022/01/09 00:04:41;;;;;;;114.65;40.17;;;;;;;-2.90;93.95;98203.13;8474858;27;20526;-69
2022/01/09 00:08:44;;;;;;;128.55;45.95;;;;;;;-2.96;93.86;98203.34;8484409;27;20076;-70
2022/01/09 00:12:44;;;;;;;124.68;42.33;;;;;;;-3.03;93.91;98193.75;8496721;27;20502;-70
2022/01/09 00:16:45;;;;;;;117.95;39.38;;;;;;;-3.07;94.55;98187.31;8480436;27;20043;-70
2022/01/09 00:20:46;;;;;;;109.38;38.55;;;;;;;-3.08;94.36;98175.19;8480370;27;20058;-70
2022/01/09 00:24:47;;;;;;;109.25;39.83;;;;;;;-3.06;94.48;98157.22;8472567;27;20070;-70
2022/01/09 00:28:48;;;;;;;101.20;38.45;;;;;;;-3.05;94.35;98164.13;8473298;27;20043;-69
2022/01/09 00:32:49;;;;;;;103.03;38.58;;;;;;;-3.02;94.49;98171.56;8493034;27;20489;-69
2022/01/09 00:36:50;;;;;;;111.45;38.85;;;;;;;-2.99;95.00;98162.34;8474797;27;20043;-70
2022/01/09 00:40:51;;;;;;;110.78;37.45;;;;;;;-2.94;95.16;98158.97;8486341;27;20124;-70
2022/01/09 00:44:52;;;;;;;104.68;35.20;;;;;;;-2.86;95.06;98150.63;8465695;27;20562;-70
2022/01/09 00:48:52;;;;;;;109.30;37.58;;;;;;;-2.85;95.06;98139.78;8484001;27;20045;-70
2022/01/09 00:52:53;;;;;;;113.05;38.33;;;;;;;-2.91;94.65;98122.31;8473726;27;20112;-71
2022/01/09 00:56:54;;;;;;;100.95;35.25;;;;;;;-2.97;94.67;98111.91;8476693;27;20067;-70
2022/01/09 01:00:55;;;;;;;103.07;34.88;;;;;;;-3.06;94.91;98114.97;8463413;27;20074;-71
2022/01/09 01:04:56;;;;;;;108.32;36.92;;;;;;;-3.12;94.78;98110.66;8465320;27;20047;-70
2022/01/09 01:08:56;;;;;;;99.43;35.40;;;;;;;-3.14;94.97;98096.13;8479199;27;20129;-71
2022/01/09 01:12:57;;;;;;;112.20;37.20;;;;;;;-3.18;94.62;98101.09;8440425;27;20057;-70
2022/01/09 01:16:58;;;;;;;103.00;35.50;;;;;;;-3.21;94.84;98093.66;8494946;27;20084;-69
2022/01/09 01:21:00;;;;;;;95.53;34.78;;;;;;;-3.32;95.27;98099.84;8481286;27;20059;-71
2022/01/09 01:25:03;;;;;;;96.90;35.45;;;;;;;-3.38;95.53;98090.25;8488596;27;20057;-70
2022/01/09 01:29:04;;;;;;;98.80;34.00;;;;;;;-3.40;96.04;98081.78;8481036;27;20391;-70
2022/01/09 01:33:05;;;;;;;107.47;35.40;;;;;;;-3.41;96.22;98069.63;8468686;27;20075;-70
2022/01/09 01:37:06;;;;;;;95.45;33.92;;;;;;;-3.38;95.84;98049.88;8462547;27;20063;-70
2022/01/09 01:41:06;;;;;;;91.97;31.80;;;;;;;-3.35;95.56;98047.53;8472277;27;20043;-70
2022/01/09 01:45:08;;;;;;;99.53;33.90;;;;;;;-3.32;95.40;98033.84;8493377;27;20399;-70
2022/01/09 01:49:11;;;;;;;96.07;33.88;;;;;;;-3.29;95.36;98025.44;8469380;27;20071;-70
2022/01/09 01:53:16;;;;;;;92.85;34.00;;;;;;;-3.28;95.36;98016.50;8471549;27;20039;-70
2022/01/09 01:57:17;;;;;;;101.95;34.00;;;;;;;-3.29;94.93;98009.59;8443277;28;20165;-70
2022/01/09 02:01:18;;;;;;;100.00;33.90;;;;;;;-3.30;95.19;97997.44;8445208;28;20482;-69
2022/01/09 02:05:18;;;;;;;100.32;33.83;;;;;;;-3.30;95.50;97997.44;8479258;28;20076;-70
2022/01/09 02:09:19;;;;;;;106.20;33.80;;;;;;;-3.36;95.57;97993.13;8492944;28;20047;-70
2022/01/09 02:13:20;;;;;;;104.22;33.30;;;;;;;-3.32;95.96;97983.69;8464734;28;20055;-70
2022/01/09 02:17:21;;;;;;;102.55;33.17;;;;;;;-3.30;95.34;97986.88;8493511;27;20058;-69
2022/01/09 02:21:23;;;;;;;93.40;33.17;;;;;;;-3.27;95.19;97975.81;8475996;27;20052;-70
2022/01/09 02:25:24;;;;;;;97.60;31.75;;;;;;;-3.28;95.15;97979.53;8497343;27;20051;-70
2022/01/09 02:29:25;;;;;;;98.18;33.65;;;;;;;-3.31;95.30;97966.78;8467949;28;20079;-69
2022/01/09 02:33:26;;;;;;;92.47;32.78;;;;;;;-3.29;95.04;97967.38;8484392;27;20105;-70
2022/01/09 02:37:26;;;;;;;94.03;33.28;;;;;;;-3.35;95.25;97957.78;8482808;27;20138;-70
2022/01/09 02:41:27;;;;;;;92.22;33.83;;;;;;;-3.40;95.69;97949.81;8493005;27;20061;-70
2022/01/09 02:45:29;;;;;;;94.53;34.25;;;;;;;-3.41;95.42;97958.75;8496058;27;20538;-70
2022/01/09 02:49:32;;;;;;;90.13;33.35;;;;;;;-3.42;95.71;97941.31;8478933;27;20047;-70
2022/01/09 02:53:36;;;;;;;93.47;32.33;;;;;;;-3.46;95.92;97937.59;8500191;27;20082;-69
2022/01/09 02:57:39;;;;;;;99.03;34.47;;;;;;;-3.50;95.98;97939.13;8432583;27;20058;-69
2022/01/09 03:01:40;;;;;;;88.28;32.78;;;;;;;-3.50;96.10;97923.31;8465852;27;20073;-69
2022/01/09 03:05:41;;;;;;;90.80;35.38;;;;;;;-3.54;96.20;97916.91;8491682;27;20043;-70
2022/01/09 03:09:41;;;;;;;100.68;33.35;;;;;;;-3.54;96.16;97906.34;8481743;27;20074;-70
2022/01/09 03:13:42;;;;;;;90.57;31.58;;;;;;;-3.53;96.10;97886.84;8491487;27;20063;-70
2022/01/09 03:17:43;;;;;;;84.70;31.10;;;;;;;-3.55;96.02;97886.31;8486590;27;20395;-70
2022/01/09 03:21:44;;;;;;;86.75;30.95;;;;;;;-3.58;96.25;97900.78;8478497;27;20043;-69
2022/01/09 03:25:45;;;;;;;96.20;31.85;;;;;;;-3.60;96.63;97894.16;8474932;27;20521;-69
2022/01/09 03:29:46;;;;;;;83.18;30.17;;;;;;;-3.60;96.62;97902.06;8414790;27;20036;-69
2022/01/09 03:33:46;;;;;;;90.63;33.22;;;;;;;-3.61;96.99;97895.19;8496901;27;20126;-69
2022/01/09 03:37:49;;;;;;;93.25;32.33;;;;;;;-3.58;96.72;97889.41;8481557;27;20502;-69
2022/01/09 03:41:49;;;;;;;86.00;30.77;;;;;;;-3.58;96.62;97884.13;8481447;27;20209;-70
2022/01/09 03:45:50;;;;;;;78.78;29.75;;;;;;;-3.56;96.67;97882.88;8499529;27;20146;-69
2022/01/09 03:49:52;;;;;;;94.95;31.58;;;;;;;-3.61;96.64;97869.63;8499303;27;20077;-69
2022/01/09 03:53:52;;;;;;;81.25;31.23;;;;;;;-3.58;96.52;97884.13;8478801;27;20050;-70
2022/01/09 03:57:53;;;;;;;88.70;30.55;;;;;;;-3.60;96.91;97875.69;8474482;27;20103;-70
2022/01/09 04:01:54;;;;;;;90.38;30.30;;;;;;;-3.60;97.21;97878.34;8434289;27;20712;-70
2022/01/09 04:06:00;;;;;;;88.03;30.08;;;;;;;-3.60;97.11;97883.59;8488712;27;20184;-69
2022/01/09 04:10:02;;;;;;;81.28;30.58;;;;;;;-3.60;97.53;97875.69;8490859;27;20051;-69
2022/01/09 04:14:03;;;;;;;90.88;31.05;;;;;;;-3.58;98.03;97878.84;8496590;27;20051;-69
2022/01/09 04:18:05;;;;;;;85.15;30.52;;;;;;;-3.58;97.83;97874.38;8495733;27;20035;-69
2022/01/09 04:22:05;;;;;;;80.05;29.92;;;;;;;-3.55;97.97;97875.75;8490312;27;20079;-70
2022/01/09 04:26:06;;;;;;;82.43;27.48;;;;;;;-3.54;97.70;97870.19;8489301;27;20074;-70
2022/01/09 04:30:07;;;;;;;81.60;28.85;;;;;;;-3.52;97.82;97867.31;8497295;27;20039;-70
2022/01/09 04:34:08;;;;;;;80.65;29.75;;;;;;;-3.50;97.55;97859.97;8490694;27;20039;-70
2022/01/09 04:38:09;;;;;;;79.13;27.00;;;;;;;-3.48;97.47;97847.28;8493539;27;20066;-69
2022/01/09 04:42:10;;;;;;;75.50;29.55;;;;;;;-3.48;97.61;97847.28;8491593;27;20046;-69
2022/01/09 04:46:13;;;;;;;79.00;28.40;;;;;;;-3.49;97.47;97851.00;8492918;27;20562;-69
2022/01/09 04:50:20;;;;;;;79.03;27.50;;;;;;;-3.46;97.68;97866.34;8467314;27;20100;-69
2022/01/09 04:54:21;;;;;;;77.07;26.70;;;;;;;-3.46;97.32;97861.06;8478003;27;20050;-70
2022/01/09 04:58:22;;;;;;;85.82;27.75;;;;;;;-3.46;97.48;97855.78;8492355;27;20498;-70
2022/01/09 05:02:22;;;;;;;75.43;27.25;;;;;;;-3.47;97.12;97854.19;8492483;27;20043;-70
2022/01/09 05:06:24;;;;;;;73.28;26.95;;;;;;;-3.46;97.48;97850.50;8487388;27;20055;-70
2022/01/09 05:10:25;;;;;;;73.20;27.70;;;;;;;-3.48;96.90;97852.56;8487264;27;20043;-71
2022/01/09 05:14:26;;;;;;;74.25;25.83;;;;;;;-3.49;97.25;97851.00;8486098;27;20062;-69
2022/01/09 05:18:26;;;;;;;83.53;29.27;;;;;;;-3.53;97.14;97839.34;8491800;27;20035;-70
2022/01/09 05:22:28;;;;;;;77.25;28.65;;;;;;;-3.58;97.18;97831.38;8490120;27;20055;-69
2022/01/09 05:26:29;;;;;;;74.00;27.60;;;;;;;-3.58;97.17;97826.09;8474079;27;20047;-70
2022/01/09 05:30:30;;;;;;;76.97;27.35;;;;;;;-3.58;97.29;97831.38;8482124;27;20091;-70
2022/01/09 05:34:31;;;;;;;67.55;27.65;;;;;;;-3.62;97.05;97831.06;8492076;27;20549;-69
2022/01/09 05:38:33;;;;;;;77.60;27.83;;;;;;;-3.63;97.17;97831.31;8478968;27;20043;-68
2022/01/09 05:42:33;;;;;;;69.07;28.23;;;;;;;-3.64;97.47;97821.78;8495040;27;20435;-68
2022/01/09 05:46:34;;;;;;;70.85;27.10;;;;;;;-3.63;97.20;97818.13;8495812;27;20055;-68
2022/01/09 05:50:35;;;;;;;72.32;27.33;;;;;;;-3.63;97.20;97818.91;8495881;27;20133;-68
2022/01/09 05:54:36;;;;;;;72.05;26.80;;;;;;;-3.59;97.50;97829.75;8489414;27;20044;-69
2022/01/09 05:58:36;;;;;;;71.03;25.48;;;;;;;-3.55;96.95;97831.69;8466925;28;20041;-68
2022/01/09 06:02:37;;;;;;;65.30;25.52;;;;;;;-3.52;96.68;97819.81;8495594;28;20085;-69
2022/01/09 06:06:38;;;;;;;67.53;26.63;;;;;;;-3.52;96.94;97825.09;8477538;28;20559;-69
2022/01/09 06:10:39;;;;;;;72.03;25.13;;;;;;;-3.51;96.79;97831.97;8495702;28;20057;-69
2022/01/09 06:14:39;;;;;;;67.13;25.23;;;;;;;-3.50;96.48;97825.66;8479494;28;20139;-69
2022/01/09 06:18:40;;;;;;;64.50;24.33;;;;;;;-3.51;96.39;97831.97;8489037;28;20090;-68
2022/01/09 06:22:42;;;;;;;70.03;26.05;;;;;;;-3.50;96.79;97828.28;8493947;28;20051;-68
2022/01/09 06:26:44;;;;;;;70.35;27.60;;;;;;;-3.56;96.78;97830.09;8494949;28;20051;-69
2022/01/09 06:30:45;;;;;;;83.28;30.20;;;;;;;-3.58;96.53;97832.16;8495176;28;20046;-69
2022/01/09 06:34:46;;;;;;;92.35;32.20;;;;;;;-3.64;96.56;97821.78;8474733;28;20051;-69
2022/01/09 06:38:46;;;;;;;84.50;33.38;;;;;;;-3.71;96.65;97821.22;8469309;28;20040;-69
2022/01/09 06:42:47;;;;;;;83.28;33.25;;;;;;;-3.71;96.80;97821.22;8461050;28;20052;-69
2022/01/09 06:46:48;;;;;;;80.13;31.60;;;;;;;-3.79;96.92;97819.00;8460891;28;20122;-69
2022/01/09 06:50:49;;;;;;;84.78;32.17;;;;;;;-3.80;97.37;97822.69;8462327;28;20279;-68
2022/01/09 06:54:50;;;;;;;89.22;33.08;;;;;;;-3.86;97.34;97820.00;8493520;28;20470;-68
2022/01/09 06:58:50;;;;;;;92.38;34.25;;;;;;;-3.89;97.90;97815.22;8445058;28;20100;-68
2022/01/09 07:02:51;;;;;;;90.50;33.28;;;;;;;-3.88;97.73;97811.53;8466724;28;20135;-69
2022/01/09 07:06:52;;;;;;;86.18;33.58;;;;;;;-3.89;97.90;97802.03;8466813;28;20481;-69
2022/01/09 07:10:53;;;;;;;84.50;30.98;;;;;;;-3.91;98.05;97808.59;8477635;27;20493;-69
2022/01/09 07:14:53;;;;;;;84.00;31.77;;;;;;;-3.92;98.45;97810.44;8489286;27;20054;-68
2022/01/09 07:18:54;;;;;;;77.03;31.55;;;;;;;-3.90;98.55;97803.06;8466519;28;20071;-68
2022/01/09 07:22:55;;;;;;;79.50;30.63;;;;;;;-3.92;98.73;97805.19;8466630;28;20142;-68
2022/01/09 07:26:55;;;;;;;92.38;32.58;;;;;;;-3.88;99.00;97801.00;8465961;28;20052;-68
2022/01/09 07:30:56;;;;;;;90.38;32.10;;;;;;;-3.84;98.41;97811.84;8494270;27;20047;-69
2022/01/09 07:34:57;;;;;;;80.10;31.92;;;;;;;-3.83;98.55;97802.88;8500154;27;20035;-69
2022/01/09 07:38:58;;;;;;;85.18;31.38;;;;;;;-3.79;98.69;97803.19;8499736;27;20039;-69
2022/01/09 07:42:59;;;;;;;91.68;34.83;;;;;;;-3.76;98.61;97805.34;8494165;27;20047;-69
2022/01/09 07:47:00;;;;;;;92.90;34.38;;;;;;;-3.71;98.51;97805.38;8468689;27;20406;-68
2022/01/09 07:51:01;;;;;;;86.47;33.47;;;;;;;-3.61;98.72;97805.50;8499778;27;20040;-69
2022/01/09 07:55:02;;;;;;;93.88;34.50;;;;;;;-3.56;98.32;97802.91;8499137;27;20126;-72
2022/01/09 07:59:03;;;;;;;89.43;34.13;;;;;;;-3.51;97.83;97805.59;8480775;27;20054;-70
2022/01/09 08:03:04;;;;;;;92.75;36.10;;;;;;;-3.45;97.86;97804.59;8495554;27;20051;-69
2022/01/09 08:07:04;;;;;;;87.38;33.15;;;;;;;-3.38;97.95;97799.88;8431790;27;20050;-68
2022/01/09 08:11:06;;;;;;;86.70;34.75;;;;;;;-3.27;97.43;97801.56;8464691;28;20062;-71
2022/01/09 08:15:07;;;;;;;95.93;34.30;;;;;;;-3.17;96.91;97801.66;8464741;28;20418;-71
2022/01/09 08:19:08;;;;;;;91.10;33.08;;;;;;;-3.09;96.55;97809.13;8446339;28;20077;-71
2022/01/09 08:23:08;;;;;;;86.93;33.17;;;;;;;-3.02;96.29;97809.72;8411684;28;20070;-68
2022/01/09 08:27:10;;;;;;;84.00;31.50;;;;;;;-2.97;96.39;97805.50;8487659;27;20602;-68
2022/01/09 08:31:11;;;;;;;90.43;32.55;;;;;;;-2.91;96.22;97804.50;8498180;27;20072;-68
2022/01/09 08:35:12;;;;;;;87.82;33.55;;;;;;;-2.83;96.06;97811.94;8497799;27;20047;-69
2022/01/09 08:39:13;;;;;;;71.85;28.80;;;;;;;-2.71;95.74;97804.63;8497778;27;20149;-68
2022/01/09 08:43:14;;;;;;;69.38;27.45;;;;;;;-2.61;95.54;97805.50;8463747;28;20067;-69
2022/01/09 08:47:14;;;;;;;77.15;30.30;;;;;;;-2.49;95.12;97807.94;8464182;27;20505;-68
2022/01/09 08:51:15;;;;;;;75.55;30.05;;;;;;;-2.43;95.18;97804.25;8463546;28;20507;-69
2022/01/09 08:55:16;;;;;;;75.00;29.45;;;;;;;-2.32;94.84;97803.25;8469626;27;20104;-68
2022/01/09 08:59:19;;;;;;;71.68;28.50;;;;;;;-2.24;94.20;97810.72;8465813;27;20043;-69
2022/01/09 09:03:20;;;;;;;79.50;30.55;;;;;;;-2.17;94.33;97790.09;8497085;27;20047;-69
2022/01/09 09:07:24;;;;;;;72.00;29.33;;;;;;;-2.04;94.45;97798.63;8478486;27;20055;-69
2022/01/09 09:11:25;;;;;;;74.45;29.60;;;;;;;-1.92;93.76;97785.97;8482276;27;20490;-69
2022/01/09 09:15:26;;;;;;;74.15;28.48;;;;;;;-1.75;93.73;97802.44;8489941;27;20130;-68
2022/01/09 09:19:29;;;;;;;66.35;27.02;;;;;;;-1.59;92.84;97801.41;8481205;27;20043;-70
2022/01/09 09:23:30;;;;;;;60.53;26.95;;;;;;;-1.48;92.41;97792.41;8453271;27;20044;-69
2022/01/09 09:27:32;;;;;;;62.90;26.10;;;;;;;-1.33;92.41;97789.78;8466309;27;20096;-68
2022/01/09 09:31:33;;;;;;;83.10;31.42;;;;;;;-1.18;91.66;97783.69;8478772;27;20051;-68
2022/01/09 09:35:34;;;;;;;70.10;27.95;;;;;;;-1.13;90.82;97793.50;8453119;27;20079;-68
2022/01/09 09:39:35;;;;;;;68.93;27.17;;;;;;;-1.02;90.53;97780.00;8484544;27;20043;-69
2022/01/09 09:43:36;;;;;;;55.47;23.58;;;;;;;-0.96;89.79;97773.63;8468090;27;20043;-68
2022/01/09 09:47:38;;;;;;;61.53;25.25;;;;;;;-0.83;89.34;97766.97;8486246;27;20073;-68
2022/01/09 09:51:39;;;;;;;51.28;22.38;;;;;;;-0.72;88.39;97768.53;8487041;27;20034;-68
2022/01/09 09:55:41;;;;;;;58.92;22.95;;;;;;;-0.64;88.18;97760.06;8477568;27;20107;-69
2022/01/09 09:59:42;;;;;;;55.38;23.00;;;;;;;-0.54;87.55;97760.03;8478245;27;20043;-68
2022/01/09 10:03:53;;;;;;;53.65;23.15;;;;;;;-0.49;87.20;97759.22;8479738;28;20096;-68
2022/01/09 10:07:56;;;;;;;53.08;22.27;;;;;;;-0.45;86.58;97761.06;8475370;28;20134;-68
2022/01/09 10:12:04;;;;;;;58.60;24.15;;;;;;;-0.30;86.63;97759.41;8491645;28;20055;-69
2022/01/09 10:16:04;;;;;;;58.37;25.20;;;;;;;-0.15;86.42;97756.69;8424563;28;20047;-69
2022/01/09 10:20:13;;;;;;;56.05;23.25;;;;;;;-0.05;85.76;97756.63;8467307;28;20067;-68
2022/01/09 10:24:13;;;;;;;56.20;23.77;;;;;;;0.02;85.64;97741.22;8476392;28;20406;-67
2022/01/09 10:28:22;;;;;;;56.83;24.00;;;;;;;0.05;85.53;97746.00;8473341;28;20069;-69
2022/01/09 10:32:28;;;;;;;67.05;26.30;;;;;;;0.16;85.84;97742.19;8463088;28;20043;-69
2022/01/09 10:36:35;;;;;;;63.30;26.10;;;;;;;0.25;85.32;97740.56;8467677;27;20122;-69
2022/01/09 10:40:38;;;;;;;63.97;26.70;;;;;;;0.30;84.94;97742.41;8490170;27;20486;-69
2022/01/09 10:44:43;;;;;;;58.95;25.08;;;;;;;0.36;85.34;97747.41;8501705;27;20058;-70
2022/01/09 10:48:44;;;;;;;68.45;27.65;;;;;;;0.29;85.21;97740.81;8501191;27;20058;-68
2022/01/09 10:52:45;;;;;;;64.30;27.10;;;;;;;0.39;85.03;97730.91;8492416;27;20050;-69
2022/01/09 10:56:45;;;;;;;64.57;27.20;;;;;;;0.43;85.01;97737.25;8483041;27;20039;-69
2022/01/09 11:00:46;;;;;;;65.35;28.13;;;;;;;0.50;84.92;97736.16;8466737;27;20116;-69
2022/01/09 11:04:49;;;;;;;71.80;27.13;;;;;;;0.49;84.46;97734.56;8479610;27;20035;-68
2022/01/09 11:08:51;;;;;;;64.45;26.88;;;;;;;0.48;84.12;97730.34;8495780;27;20039;-69
2022/01/09 11:12:54;;;;;;;54.85;25.00;;;;;;;0.58;83.65;97738.22;8500482;27;20081;-69
2022/01/09 11:16:56;;;;;;;61.88;26.08;;;;;;;0.67;83.13;97736.56;8473505;27;20051;-70
2022/01/09 11:20:57;;;;;;;62.72;26.77;;;;;;;0.70;83.11;97738.66;8482766;27;20059;-69
2022/01/09 11:25:13;;;;;;;60.95;27.02;;;;;;;0.75;82.87;97733.28;8444847;27;20042;-68
2022/01/09 11:29:15;;;;;;;67.55;29.38;;;;;;;0.80;82.93;97735.91;8482818;27;20051;-68
2022/01/09 11:33:48;;;;;;;54.25;23.63;;;;;;;0.74;82.40;97742.34;8472507;27;20532;-68
2022/01/09 11:38:00;;;;;;;54.78;22.05;;;;;;;0.75;82.34;97735.94;8311864;28;20060;-69
2022/01/09 11:42:12;;;;;;;46.35;21.00;;;;;;;0.82;82.07;97737.22;8295134;28;20077;-69
2022/01/09 11:46:13;;;;;;;55.25;22.85;;;;;;;0.83;81.29;97735.38;8294874;28;20057;-69
2022/01/09 11:50:17;;;;;;;50.13;21.95;;;;;;;0.90;81.29;97725.19;8295425;28;20140;-69
2022/01/09 11:54:20;;;;;;;49.97;19.80;;;;;;;0.94;80.92;97728.91;8295311;28;20482;-69
2022/01/09 11:58:22;;;;;;;48.75;19.85;;;;;;;1.09;81.00;97728.75;8295423;28;20046;-69
2022/01/09 12:02:27;;;;;;;46.47;19.50;;;;;;;1.27;80.17;97725.34;8294977;28;20125;-69
2022/01/09 12:06:40;;;;;;;46.72;18.48;;;;;;;1.25;79.34;97727.53;8294771;28;20531;-69
2022/01/09 12:10:50;;;;;;;45.13;17.38;;;;;;;1.30;78.90;97723.22;8325819;28;20052;-69
2022/01/09 12:18:53;;;;;;;49.03;19.17;;;;;;;1.15;78.28;97722.31;8494446;27;20351;-69
2022/01/09 12:23:05;;;;;;;48.67;19.27;;;;;;;1.07;78.47;97730.09;8497572;27;20250;-69
2022/01/09 12:27:48;;;;;;;45.17;17.92;;;;;;;1.08;78.58;97732.47;8498057;27;20043;-70
2022/01/09 12:31:49;;;;;;;50.33;18.58;;;;;;;1.14;78.44;97741.19;8497729;27;20108;-69
2022/01/09 12:36:13;;;;;;;45.05;18.77;;;;;;;1.20;77.62;97735.56;8479065;27;20071;-69
2022/01/09 12:40:18;;;;;;;62.40;22.73;;;;;;;1.23;77.22;97737.63;8497573;27;20556;-70
2022/01/09 12:44:19;;;;;;;68.45;22.40;;;;;;;1.32;76.84;97737.03;8497707;27;20043;-69
2022/01/09 12:48:27;;;;;;;49.55;20.70;;;;;;;1.31;76.81;97746.09;8497217;27;20180;-69
2022/01/09 12:52:27;;;;;;;53.00;21.40;;;;;;;1.42;76.24;97747.56;8497307;27;20561;-69
2022/01/09 12:56:30;;;;;;;54.80;21.25;;;;;;;1.39;76.08;97742.81;8493196;27;20044;-69
2022/01/09 13:00:31;;;;;;;52.55;21.40;;;;;;;1.31;76.06;97751.41;8469602;27;20056;-70
2022/01/09 13:04:34;;;;;;;43.88;18.83;;;;;;;1.26;75.91;97753.06;8463357;28;20050;-68
2022/01/09 13:08:38;;;;;;;41.03;18.92;;;;;;;1.18;76.16;97760.84;8463888;28;20135;-69
2022/01/09 13:12:58;;;;;;;46.85;20.63;;;;;;;1.07;75.66;97762.78;8475579;27;20048;-69
2022/01/09 13:16:59;;;;;;;48.10;19.55;;;;;;;1.01;76.52;97779.84;8464563;27;20508;-69
2022/01/09 13:21:32;;;;;;;51.70;19.75;;;;;;;0.98;76.47;97780.41;8482604;27;20051;-69
2022/01/09 13:25:43;;;;;;;54.53;23.75;;;;;;;1.01;76.76;97785.16;8289020;28;20111;-69
2022/01/09 13:29:54;;;;;;;56.72;24.00;;;;;;;1.02;76.52;97789.41;8321937;28;20042;-70
2022/01/09 13:34:04;;;;;;;62.20;22.92;;;;;;;0.92;76.67;97780.72;8308680;28;20046;-69
2022/01/09 13:38:05;;;;;;;43.92;18.77;;;;;;;0.90;76.00;97794.28;8292212;28;20169;-69
2022/01/09 13:42:09;;;;;;;46.78;19.45;;;;;;;0.91;75.74;97793.22;8324656;28;20142;-69
2022/01/09 13:46:11;;;;;;;50.17;19.48;;;;;;;0.86;75.58;97793.25;8324254;28;20057;-70
2022/01/09 13:50:15;;;;;;;53.13;20.75;;;;;;;0.80;75.81;97794.38;8308257;28;20053;-70
2022/01/09 13:54:19;;;;;;;50.42;17.52;;;;;;;0.75;75.42;97797.06;8291445;28;20046;-70
2022/01/09 13:58:20;;;;;;;41.33;16.08;;;;;;;0.73;75.97;97799.22;8291492;28;20050;-70
2022/01/09 14:02:23;;;;;;;37.83;16.92;;;;;;;0.67;76.05;97803.78;8412756;28;20414;-69
2022/01/09 14:06:24;;;;;;;40.15;15.82;;;;;;;0.63;75.82;97804.59;8460911;28;20058;-69
2022/01/09 14:10:36;;;;;;;39.00;16.02;;;;;;;0.57;75.85;97806.50;8477725;27;20055;-70
2022/01/09 14:14:42;;;;;;;39.10;16.98;;;;;;;0.56;75.61;97814.75;8491006;27;20437;-69
2022/01/09 14:18:46;;;;;;;41.00;15.90;;;;;;;0.51;75.59;97812.91;8502759;27;20552;-69
2022/01/09 14:22:50;;;;;;;42.53;16.27;;;;;;;0.50;75.45;97815.84;8502477;27;20569;-70
2022/01/09 14:26:57;;;;;;;40.67;16.38;;;;;;;0.43;75.63;97827.56;8448768;27;20065;-69
2022/01/09 14:31:10;;;;;;;41.30;15.55;;;;;;;0.38;75.81;97827.59;8469173;28;20092;-70
2022/01/09 14:35:28;;;;;;;45.63;19.05;;;;;;;0.34;76.24;97831.84;8469163;28;20071;-70
2022/01/09 14:39:32;;;;;;;47.13;18.65;;;;;;;0.25;76.75;97846.78;8468637;28;20047;-70
2022/01/09 14:43:36;;;;;;;42.80;18.80;;;;;;;0.18;76.93;97830.34;8477425;27;20047;-70
2022/01/09 14:47:38;;;;;;;45.35;19.00;;;;;;;0.13;77.08;97843.63;8504420;27;20127;-68
2022/01/09 14:51:39;;;;;;;47.67;18.15;;;;;;;0.10;77.04;97849.50;8505238;27;20051;-70
2022/01/09 14:55:41;;;;;;;46.70;20.00;;;;;;;0.05;76.89;97852.19;8504209;27;20067;-69
2022/01/09 14:59:42;;;;;;;52.72;21.23;;;;;;;0.02;77.27;97852.69;8486005;27;20047;-68
2022/01/09 15:03:42;;;;;;;58.70;21.55;;;;;;;-0.03;77.28;97866.00;8471327;28;20043;-69
2022/01/09 15:07:43;;;;;;;57.03;20.92;;;;;;;-0.07;77.51;97864.94;8471443;27;20051;-70
2022/01/09 15:11:44;;;;;;;50.30;19.77;;;;;;;-0.10;77.70;97865.47;8471350;28;20079;-69
2022/01/09 15:15:46;;;;;;;59.42;21.77;;;;;;;-0.13;77.79;97877.44;8419282;27;20048;-68
2022/01/09 15:19:46;;;;;;;59.58;21.70;;;;;;;-0.17;78.37;97880.91;8479333;27;20046;-69
2022/01/09 15:23:47;;;;;;;58.63;22.13;;;;;;;-0.19;78.34;97883.00;8468373;27;20051;-70
2022/01/09 15:27:48;;;;;;;63.20;23.40;;;;;;;-0.23;78.44;97887.28;8465126;28;20163;-68
2022/01/09 15:31:50;;;;;;;77.40;25.65;;;;;;;-0.25;78.71;97884.88;8464220;28;20055;-69
2022/01/09 15:35:50;;;;;;;61.67;22.73;;;;;;;-0.28;78.82;97895.25;8465893;27;20054;-69
2022/01/09 15:39:51;;;;;;;58.70;22.17;;;;;;;-0.34;78.83;97906.91;8411580;28;20047;-70
2022/01/09 15:43:53;;;;;;;68.15;25.98;;;;;;;-0.33;79.22;97905.84;8463587;28;20077;-69
2022/01/09 15:47:54;;;;;;;63.55;23.33;;;;;;;-0.38;79.11;97911.16;8463170;28;20100;-69
2022/01/09 15:51:54;;;;;;;62.10;22.83;;;;;;;-0.40;79.52;97902.66;8474288;27;20123;-70
2022/01/09 15:55:57;;;;;;;63.95;24.00;;;;;;;-0.42;79.65;97910.88;8479777;27;20097;-68
2022/01/09 15:59:58;;;;;;;63.63;22.80;;;;;;;-0.42;79.62;97926.81;8461782;28;20161;-69
2022/01/09 16:03:59;;;;;;;61.75;23.38;;;;;;;-0.44;79.67;97921.78;8475409;27;20150;-69
2022/01/09 16:08:00;;;;;;;65.75;22.08;;;;;;;-0.47;79.52;97919.66;8489780;27;20081;-69
2022/01/09 16:12:08;;;;;;;62.05;22.67;;;;;;;-0.48;79.56;97926.00;8426721;28;20434;-70
2022/01/09 16:16:09;;;;;;;62.55;23.05;;;;;;;-0.53;79.72;97920.69;8452813;27;20075;-70
2022/01/09 16:20:11;;;;;;;49.67;19.50;;;;;;;-0.55;80.30;97928.16;8442973;27;20453;-69
2022/01/09 16:24:12;;;;;;;48.25;19.50;;;;;;;-0.54;80.16;97940.34;8464243;27;20498;-70
2022/01/09 16:28:13;;;;;;;54.20;19.85;;;;;;;-0.54;80.03;97935.06;8427509;28;20132;-69
2022/01/09 16:32:14;;;;;;;50.78;19.83;;;;;;;-0.55;80.34;97938.75;8487045;27;20051;-69
2022/01/09 16:36:18;;;;;;;56.80;21.10;;;;;;;-0.55;80.24;97946.72;8475142;27;20414;-70
2022/01/09 16:40:20;;;;;;;54.65;21.23;;;;;;;-0.54;80.26;97961.56;8463039;27;20046;-69
2022/01/09 16:44:21;;;;;;;61.42;23.33;;;;;;;-0.53;80.01;97957.84;8461548;28;20047;-70
2022/01/09 16:48:22;;;;;;;54.80;21.65;;;;;;;-0.50;80.49;97962.63;8461652;28;20074;-69
2022/01/09 16:52:23;;;;;;;56.30;22.30;;;;;;;-0.48;79.93;97965.78;8461103;28;20418;-69
2022/01/09 16:56:26;;;;;;;48.88;18.55;;;;;;;-0.53;79.98;97968.44;8470205;27;20074;-69
2022/01/09 17:00:27;;;;;;;55.35;19.60;;;;;;;-0.53;79.96;97979.06;8485734;27;20053;-69
2022/01/09 17:04:28;;;;;;;46.15;17.60;;;;;;;-0.49;80.01;97964.22;8476884;27;20055;-69
2022/01/09 17:08:35;;;;;;;44.67;17.95;;;;;;;-0.49;79.99;97985.44;8467496;27;20539;-69
2022/01/09 17:12:38;;;;;;;47.33;18.42;;;;;;;-0.50;80.36;97975.88;8477034;27;20058;-71
2022/01/09 17:16:39;;;;;;;54.47;19.63;;;;;;;-0.51;80.16;97987.56;8468545;27;20095;-70
2022/01/09 17:20:40;;;;;;;52.50;19.67;;;;;;;-0.56;80.61;97995.50;8470170;27;20175;-69
2022/01/09 17:24:40;;;;;;;49.45;19.00;;;;;;;-0.55;80.45;98002.41;8457880;27;20054;-69
2022/01/09 17:28:41;;;;;;;48.03;18.33;;;;;;;-0.55;80.52;97999.75;8471328;27;20133;-69
2022/01/09 17:32:42;;;;;;;62.33;20.05;;;;;;;-0.57;80.48;98004.50;8481324;27;20031;-70
2022/01/09 17:37:04;;;;;;;51.42;19.60;;;;;;;-0.63;80.95;98005.56;8391949;28;20051;-69
2022/01/09 17:41:05;;;;;;;50.45;18.45;;;;;;;-0.66;80.99;98011.41;8389744;28;20573;-70
2022/01/09 17:45:07;;;;;;;59.00;19.67;;;;;;;-0.65;80.93;98028.91;8392303;28;20072;-70
2022/01/09 17:49:13;;;;;;;73.05;24.67;;;;;;;-0.66;80.92;98032.59;8389882;28;20488;-69
2022/01/09 17:53:14;;;;;;;68.47;22.95;;;;;;;-0.63;80.78;98026.78;8390623;28;20045;-71
2022/01/09 17:57:15;;;;;;;72.65;28.35;;;;;;;-0.58;80.86;98040.03;8393513;28;20048;-69
2022/01/09 18:01:16;;;;;;;48.80;18.80;;;;;;;-0.64;81.08;98043.75;8390687;28;20048;-69
2022/01/09 18:05:19;;;;;;;47.17;19.05;;;;;;;-0.63;80.66;98053.28;8391367;28;20052;-69
2022/01/09 18:09:19;;;;;;;47.83;17.85;;;;;;;-0.60;80.81;98062.59;8460898;28;20091;-70
2022/01/09 18:13:21;;;;;;;48.95;19.85;;;;;;;-0.62;80.64;98065.50;8445494;28;20135;-69
2022/01/09 18:17:23;;;;;;;51.75;20.27;;;;;;;-0.60;80.92;98066.03;8482330;28;20039;-69
2022/01/09 18:21:24;;;;;;;54.75;20.20;;;;;;;-0.62;80.75;98070.78;8474935;28;20036;-70
2022/01/09 18:25:27;;;;;;;52.05;18.88;;;;;;;-0.62;81.12;98064.69;8446146;28;20160;-70
2022/01/09 18:29:28;;;;;;;52.88;20.95;;;;;;;-0.65;80.69;98076.63;8463027;28;20051;-70
2022/01/09 18:33:28;;;;;;;66.13;27.33;;;;;;;-0.67;81.08;98083.25;8467895;28;20515;-70
2022/01/09 18:37:31;;;;;;;59.88;22.75;;;;;;;-0.65;80.81;98092.53;8462157;28;20041;-71
2022/01/09 18:41:32;;;;;;;57.30;21.55;;;;;;;-0.68;81.18;98098.34;8471022;28;20043;-70